sensor_id;sensor_type;location;lat;lon;timestamp;P1;durP1;ratioP1;P2;durP2;ratioP2
72645;SDS011;60687;53.876;10.674;2022-12-24T00:04:36;16.13;;;7.17;;
72645;SDS011;60687;53.876;10.674;2022-12-24T00:14:43;17.07;;;6.80;;
72645;SDS011;60687;53.876;10.674;2022-12-24T00:25:11;17.88;;;6.15;;
72645;SDS011;60687;53.876;10.674;2022-12-24T00:35:34;16.77;;;6.63;;
72645;SDS011;60687;53.876;10.674;2022-12-24T00:56:44;16.77;;;6.93;;
72645;SDS011;60687;53.876;10.674;2022-12-24T01:06:55;14.57;;;5.60;;
72645;SDS011;60687;53.876;10.674;2022-12-24T01:17:01;17.63;;;7.50;;
72645;SDS011;60687;53.876;10.674;2022-12-24T01:27:09;16.90;;;7.53;;
72645;SDS011;60687;53.876;10.674;2022-12-24T01:37:27;21.85;;;7.43;;
72645;SDS011;60687;53.876;10.674;2022-12-24T01:47:42;17.23;;;6.60;;
72645;SDS011;60687;53.876;10.674;2022-12-24T01:57:53;21.33;;;6.90;;
72645;SDS011;60687;53.876;10.674;2022-12-24T02:08:03;20.02;;;6.97;;
72645;SDS011;60687;53.876;10.674;2022-12-24T02:18:13;15.83;;;6.97;;
72645;SDS011;60687;53.876;10.674;2022-12-24T02:28:42;16.20;;;6.40;;
72645;SDS011;60687;53.876;10.674;2022-12-24T02:39:07;15.48;;;5.93;;
72645;SDS011;60687;53.876;10.674;2022-12-24T02:49:12;21.37;;;6.87;;
72645;SDS011;60687;53.876;10.674;2022-12-24T02:59:23;18.07;;;6.43;;
72645;SDS011;60687;53.876;10.674;2022-12-24T03:10:10;15.93;;;7.07;;
72645;SDS011;60687;53.876;10.674;2022-12-24T03:20:34;15.07;;;6.90;;
72645;SDS011;60687;53.876;10.674;2022-12-24T03:30:39;14.07;;;6.30;;
72645;SDS011;60687;53.876;10.674;2022-12-24T03:40:43;17.37;;;6.63;;
72645;SDS011;60687;53.876;10.674;2022-12-24T03:50:49;15.98;;;6.32;;
72645;SDS011;60687;53.876;10.674;2022-12-24T04:12:13;18.97;;;7.17;;
72645;SDS011;60687;53.876;10.674;2022-12-24T05:18:19;14.37;;;5.70;;
72645;SDS011;60687;53.876;10.674;2022-12-24T05:40:18;15.80;;;6.30;;
72645;SDS011;60687;53.876;10.674;2022-12-24T05:50:21;16.93;;;7.23;;
72645;SDS011;60687;53.876;10.674;2022-12-24T06:00:24;16.97;;;6.90;;
72645;SDS011;60687;53.876;10.674;2022-12-24T06:10:29;16.67;;;7.95;;
72645;SDS011;60687;53.876;10.674;2022-12-24T06:20:42;13.67;;;5.77;;
72645;SDS011;60687;53.876;10.674;2022-12-24T06:30:52;14.00;;;6.37;;
72645;SDS011;60687;53.876;10.674;2022-12-24T06:51:30;14.98;;;6.70;;
72645;SDS011;60687;53.876;10.674;2022-12-24T07:01:46;15.13;;;6.17;;
72645;SDS011;60687;53.876;10.674;2022-12-24T07:12:05;14.77;;;6.33;;
72645;SDS011;60687;53.876;10.674;2022-12-24T07:33:08;13.33;;;5.60;;
72645;SDS011;60687;53.876;10.674;2022-12-24T07:43:22;13.33;;;5.33;;
72645;SDS011;60687;53.876;10.674;2022-12-24T07:54:10;10.55;;;5.15;;
72645;SDS011;60687;53.876;10.674;2022-12-24T08:04:29;12.40;;;4.70;;
72645;SDS011;60687;53.876;10.674;2022-12-24T08:14:37;11.87;;;4.80;;
72645;SDS011;60687;53.876;10.674;2022-12-24T08:24:57;11.65;;;5.05;;
72645;SDS011;60687;53.876;10.674;2022-12-24T08:35:17;14.93;;;5.00;;
72645;SDS011;60687;53.876;10.674;2022-12-24T08:56:21;16.47;;;5.70;;
72645;SDS011;60687;53.876;10.674;2022-12-24T09:06:45;15.05;;;5.82;;
72645;SDS011;60687;53.876;10.674;2022-12-24T09:17:04;11.53;;;5.17;;
72645;SDS011;60687;53.876;10.674;2022-12-24T09:27:12;14.83;;;4.97;;
72645;SDS011;60687;53.876;10.674;2022-12-24T09:37:17;10.40;;;4.25;;
72645;SDS011;60687;53.876;10.674;2022-12-24T09:47:26;10.63;;;4.43;;
72645;SDS011;60687;53.876;10.674;2022-12-24T09:57:37;17.77;;;6.50;;
72645;SDS011;60687;53.876;10.674;2022-12-24T10:07:58;13.65;;;5.65;;
72645;SDS011;60687;53.876;10.674;2022-12-24T10:18:14;17.13;;;7.85;;
72645;SDS011;60687;53.876;10.674;2022-12-24T10:28:33;14.50;;;6.03;;
72645;SDS011;60687;53.876;10.674;2022-12-24T10:38:44;14.27;;;5.93;;
72645;SDS011;60687;53.876;10.674;2022-12-24T10:48:51;18.30;;;7.55;;
72645;SDS011;60687;53.876;10.674;2022-12-24T10:58:58;13.47;;;5.23;;
72645;SDS011;60687;53.876;10.674;2022-12-24T11:09:16;11.50;;;4.90;;
72645;SDS011;60687;53.876;10.674;2022-12-24T11:19:25;16.55;;;7.40;;
72645;SDS011;60687;53.876;10.674;2022-12-24T11:29:33;15.27;;;5.93;;
72645;SDS011;60687;53.876;10.674;2022-12-24T11:39:40;15.03;;;6.37;;
72645;SDS011;60687;53.876;10.674;2022-12-24T11:49:49;10.88;;;4.78;;
72645;SDS011;60687;53.876;10.674;2022-12-24T11:59:51;11.82;;;5.53;;
72645;SDS011;60687;53.876;10.674;2022-12-24T12:09:58;11.77;;;5.53;;
72645;SDS011;60687;53.876;10.674;2022-12-24T12:20:05;17.73;;;7.77;;
72645;SDS011;60687;53.876;10.674;2022-12-24T12:30:15;13.35;;;6.55;;
72645;SDS011;60687;53.876;10.674;2022-12-24T12:40:19;17.00;;;6.63;;
72645;SDS011;60687;53.876;10.674;2022-12-24T12:50:28;13.40;;;6.17;;
72645;SDS011;60687;53.876;10.674;2022-12-24T13:00:37;13.38;;;6.90;;
72645;SDS011;60687;53.876;10.674;2022-12-24T13:10:46;12.43;;;6.07;;
72645;SDS011;60687;53.876;10.674;2022-12-24T13:20:57;15.60;;;7.40;;
72645;SDS011;60687;53.876;10.674;2022-12-24T13:31:24;25.35;;;9.85;;
72645;SDS011;60687;53.876;10.674;2022-12-24T13:52:06;15.07;;;6.83;;
72645;SDS011;60687;53.876;10.674;2022-12-24T14:02:16;14.33;;;6.20;;
72645;SDS011;60687;53.876;10.674;2022-12-24T14:12:31;16.20;;;7.47;;
72645;SDS011;60687;53.876;10.674;2022-12-24T14:22:45;18.40;;;8.20;;
72645;SDS011;60687;53.876;10.674;2022-12-24T14:32:49;18.20;;;7.53;;
72645;SDS011;60687;53.876;10.674;2022-12-24T14:42:56;16.85;;;6.90;;
72645;SDS011;60687;53.876;10.674;2022-12-24T14:53:06;17.47;;;7.50;;
72645;SDS011;60687;53.876;10.674;2022-12-24T15:03:20;13.47;;;6.33;;
72645;SDS011;60687;53.876;10.674;2022-12-24T15:13:27;18.15;;;7.57;;
72645;SDS011;60687;53.876;10.674;2022-12-24T15:23:34;22.42;;;9.95;;
72645;SDS011;60687;53.876;10.674;2022-12-24T15:33:38;21.50;;;9.33;;
72645;SDS011;60687;53.876;10.674;2022-12-24T15:43:40;20.80;;;9.70;;
72645;SDS011;60687;53.876;10.674;2022-12-24T15:53:47;19.08;;;8.20;;
72645;SDS011;60687;53.876;10.674;2022-12-24T16:03:58;18.90;;;8.43;;
72645;SDS011;60687;53.876;10.674;2022-12-24T16:14:09;17.47;;;7.87;;
72645;SDS011;60687;53.876;10.674;2022-12-24T16:24:17;25.20;;;9.63;;
72645;SDS011;60687;53.876;10.674;2022-12-24T16:34:24;22.37;;;8.63;;
72645;SDS011;60687;53.876;10.674;2022-12-24T16:44:28;17.87;;;7.50;;
72645;SDS011;60687;53.876;10.674;2022-12-24T16:54:31;25.25;;;10.38;;
72645;SDS011;60687;53.876;10.674;2022-12-24T17:04:33;26.98;;;11.52;;
72645;SDS011;60687;53.876;10.674;2022-12-24T17:14:38;20.33;;;7.73;;
72645;SDS011;60687;53.876;10.674;2022-12-24T17:24:41;20.50;;;8.43;;
72645;SDS011;60687;53.876;10.674;2022-12-24T17:34:44;21.13;;;7.82;;
72645;SDS011;60687;53.876;10.674;2022-12-24T17:44:46;19.23;;;8.57;;
72645;SDS011;60687;53.876;10.674;2022-12-24T17:54:50;18.90;;;8.60;;
72645;SDS011;60687;53.876;10.674;2022-12-24T18:04:59;20.92;;;8.88;;
72645;SDS011;60687;53.876;10.674;2022-12-24T18:15:07;21.30;;;8.47;;
72645;SDS011;60687;53.876;10.674;2022-12-24T18:25:10;21.93;;;8.33;;
72645;SDS011;60687;53.876;10.674;2022-12-24T18:46:06;16.73;;;6.18;;
72645;SDS011;60687;53.876;10.674;2022-12-24T18:56:25;15.13;;;6.73;;
72645;SDS011;60687;53.876;10.674;2022-12-24T19:17:26;17.63;;;6.40;;
72645;SDS011;60687;53.876;10.674;2022-12-24T19:28:08;18.13;;;6.80;;
72645;SDS011;60687;53.876;10.674;2022-12-24T19:38:38;14.97;;;6.17;;
72645;SDS011;60687;53.876;10.674;2022-12-24T19:48:46;15.07;;;6.82;;
72645;SDS011;60687;53.876;10.674;2022-12-24T19:58:54;16.37;;;7.37;;
72645;SDS011;60687;53.876;10.674;2022-12-24T20:09:18;20.40;;;8.77;;
72645;SDS011;60687;53.876;10.674;2022-12-24T20:19:31;19.20;;;8.48;;
72645;SDS011;60687;53.876;10.674;2022-12-24T20:29:34;18.05;;;8.30;;
72645;SDS011;60687;53.876;10.674;2022-12-24T20:39:40;14.13;;;5.93;;
72645;SDS011;60687;53.876;10.674;2022-12-24T20:49:48;15.60;;;6.23;;
72645;SDS011;60687;53.876;10.674;2022-12-24T21:00:19;15.15;;;7.05;;
72645;SDS011;60687;53.876;10.674;2022-12-24T21:10:22;18.23;;;7.60;;
72645;SDS011;60687;53.876;10.674;2022-12-24T21:20:26;15.13;;;6.30;;
72645;SDS011;60687;53.876;10.674;2022-12-24T21:30:45;13.43;;;4.80;;
72645;SDS011;60687;53.876;10.674;2022-12-24T21:40:57;12.90;;;4.03;;
72645;SDS011;60687;53.876;10.674;2022-12-24T21:51:00;10.77;;;4.50;;
72645;SDS011;60687;53.876;10.674;2022-12-24T22:01:13;13.93;;;4.47;;
72645;SDS011;60687;53.876;10.674;2022-12-24T22:11:15;12.32;;;4.78;;
72645;SDS011;60687;53.876;10.674;2022-12-24T22:21:36;12.07;;;3.90;;
72645;SDS011;60687;53.876;10.674;2022-12-24T22:31:38;10.33;;;3.73;;
72645;SDS011;60687;53.876;10.674;2022-12-24T22:41:46;10.30;;;3.53;;
72645;SDS011;60687;53.876;10.674;2022-12-24T22:51:48;11.03;;;4.30;;
72645;SDS011;60687;53.876;10.674;2022-12-24T23:01:51;12.73;;;3.67;;
72645;SDS011;60687;53.876;10.674;2022-12-24T23:11:55;11.13;;;3.78;;
72645;SDS011;60687;53.876;10.674;2022-12-24T23:21:58;12.90;;;4.27;;
72645;SDS011;60687;53.876;10.674;2022-12-24T23:32:01;12.07;;;3.33;;
72645;SDS011;60687;53.876;10.674;2022-12-24T23:42:20;14.57;;;4.65;;
72645;SDS011;60687;53.876;10.674;2022-12-24T23:52:25;13.20;;;3.95;;
